sensor_id;sensor_type;location;lat;lon;timestamp;pressure;altitude;pressure_sealevel;temperature;humidity
34177;BME280;20450;49.074;9.158;2023-03-04T00:00:00;100389.69;;;2.00;81.20
34177;BME280;20450;49.074;9.158;2023-03-04T00:02:35;100381.38;;;2.22;79.92
34177;BME280;20450;49.074;9.158;2023-03-04T00:05:04;100388.50;;;2.41;79.06
34177;BME280;20450;49.074;9.158;2023-03-04T00:07:32;100389.44;;;2.49;77.83
34177;BME280;20450;49.074;9.158;2023-03-04T00:09:59;100394.47;;;2.52;76.99
34177;BME280;20450;49.074;9.158;2023-03-04T00:12:26;100401.22;;;1.91;79.33
34177;BME280;20450;49.074;9.158;2023-03-04T00:14:53;100407.22;;;1.55;81.42
34177;BME280;20450;49.074;9.158;2023-03-04T00:17:20;100402.56;;;1.28;82.32
34177;BME280;20450;49.074;9.158;2023-03-04T00:19:47;100408.53;;;1.02;84.12
34177;BME280;20450;49.074;9.158;2023-03-04T00:22:15;100402.09;;;1.04;84.61
34177;BME280;20450;49.074;9.158;2023-03-04T00:24:42;100402.56;;;1.28;84.49
34177;BME280;20450;49.074;9.158;2023-03-04T00:27:08;100406.94;;;1.58;83.49
34177;BME280;20450;49.074;9.158;2023-03-04T00:29:35;100395.34;;;1.78;82.21
34177;BME280;20450;49.074;9.158;2023-03-04T00:32:02;100401.63;;;1.96;80.79
34177;BME280;20450;49.074;9.158;2023-03-04T00:34:29;100387.19;;;2.08;79.43
34177;BME280;20450;49.074;9.158;2023-03-04T00:36:58;100396.25;;;2.25;78.45
34177;BME280;20450;49.074;9.158;2023-03-04T00:39:27;100401.84;;;2.31;78.09
34177;BME280;20450;49.074;9.158;2023-03-04T00:41:54;100395.53;;;2.32;76.96
34177;BME280;20450;49.074;9.158;2023-03-04T00:44:21;100394.94;;;2.38;76.44
34177;BME280;20450;49.074;9.158;2023-03-04T00:46:48;100399.16;;;2.41;75.91
34177;BME280;20450;49.074;9.158;2023-03-04T00:49:15;100399.97;;;2.41;75.20
34177;BME280;20450;49.074;9.158;2023-03-04T00:51:42;100400.03;;;2.32;75.32
34177;BME280;20450;49.074;9.158;2023-03-04T00:54:09;100394.84;;;2.30;75.27
34177;BME280;20450;49.074;9.158;2023-03-04T00:56:37;100394.84;;;2.21;75.85
34177;BME280;20450;49.074;9.158;2023-03-04T00:59:04;100396.56;;;2.02;77.86
34177;BME280;20450;49.074;9.158;2023-03-04T01:01:31;100390.97;;;1.96;77.50
34177;BME280;20450;49.074;9.158;2023-03-04T01:03:58;100393.06;;;2.02;76.90
34177;BME280;20450;49.074;9.158;2023-03-04T01:06:25;100389.41;;;1.93;77.66
34177;BME280;20450;49.074;9.158;2023-03-04T01:08:52;100392.38;;;1.81;78.86
34177;BME280;20450;49.074;9.158;2023-03-04T01:11:19;100395.59;;;1.65;80.20
34177;BME280;20450;49.074;9.158;2023-03-04T01:13:47;100392.66;;;1.68;80.56
34177;BME280;20450;49.074;9.158;2023-03-04T01:16:14;100391.69;;;1.79;80.28
34177;BME280;20450;49.074;9.158;2023-03-04T01:18:41;100391.81;;;1.87;79.18
34177;BME280;20450;49.074;9.158;2023-03-04T01:21:08;100392.38;;;1.90;78.72
34177;BME280;20450;49.074;9.158;2023-03-04T01:23:35;100389.00;;;1.98;78.28
34177;BME280;20450;49.074;9.158;2023-03-04T01:26:03;100388.41;;;2.04;77.40
34177;BME280;20450;49.074;9.158;2023-03-04T01:28:30;100387.84;;;2.10;76.59
34177;BME280;20450;49.074;9.158;2023-03-04T01:30:58;100387.56;;;2.13;75.92
34177;BME280;20450;49.074;9.158;2023-03-04T01:33:25;100386.31;;;2.17;76.51
34177;BME280;20450;49.074;9.158;2023-03-04T01:35:52;100391.78;;;2.16;77.27
34177;BME280;20450;49.074;9.158;2023-03-04T01:38:19;100389.13;;;2.16;77.66
34177;BME280;20450;49.074;9.158;2023-03-04T01:40:46;100391.78;;;2.16;77.51
34177;BME280;20450;49.074;9.158;2023-03-04T01:43:17;100377.91;;;2.12;77.29
34177;BME280;20450;49.074;9.158;2023-03-04T01:45:49;100373.00;;;2.08;77.33
34177;BME280;20450;49.074;9.158;2023-03-04T01:48:21;100378.75;;;2.13;76.66
34177;BME280;20450;49.074;9.158;2023-03-04T01:50:51;100374.81;;;2.17;76.74
34177;BME280;20450;49.074;9.158;2023-03-04T01:53:21;100376.09;;;2.13;76.23
34177;BME280;20450;49.074;9.158;2023-03-04T01:55:51;100376.22;;;2.11;76.25
34177;BME280;20450;49.074;9.158;2023-03-04T01:58:19;100377.47;;;2.07;75.66
34177;BME280;20450;49.074;9.158;2023-03-04T02:00:47;100379.47;;;2.05;74.63
34177;BME280;20450;49.074;9.158;2023-03-04T02:03:16;100376.09;;;2.03;74.43
34177;BME280;20450;49.074;9.158;2023-03-04T02:05:47;100373.72;;;2.00;75.02
34177;BME280;20450;49.074;9.158;2023-03-04T02:08:21;100378.47;;;1.96;75.04
34177;BME280;20450;49.074;9.158;2023-03-04T02:10:50;100373.44;;;1.93;74.41
34177;BME280;20450;49.074;9.158;2023-03-04T02:13:18;100367.16;;;1.85;74.83
34177;BME280;20450;49.074;9.158;2023-03-04T02:15:46;100363.22;;;1.79;75.87
34177;BME280;20450;49.074;9.158;2023-03-04T02:18:15;100368.13;;;1.74;76.58
34177;BME280;20450;49.074;9.158;2023-03-04T02:20:53;100371.81;;;1.54;78.67
34177;BME280;20450;49.074;9.158;2023-03-04T02:23:34;100375.44;;;1.25;80.80
34177;BME280;20450;49.074;9.158;2023-03-04T02:26:16;100371.44;;;0.91;82.56
34177;BME280;20450;49.074;9.158;2023-03-04T02:28:48;100374.13;;;0.61;84.47
34177;BME280;20450;49.074;9.158;2023-03-04T02:31:23;100373.66;;;0.46;84.90
34177;BME280;20450;49.074;9.158;2023-03-04T02:33:56;100374.91;;;0.22;85.86
34177;BME280;20450;49.074;9.158;2023-03-04T02:36:26;100380.38;;;0.20;86.25
34177;BME280;20450;49.074;9.158;2023-03-04T02:38:55;100369.66;;;0.31;85.96
34177;BME280;20450;49.074;9.158;2023-03-04T02:41:30;100367.75;;;0.43;85.85
34177;BME280;20450;49.074;9.158;2023-03-04T02:43:58;100372.81;;;0.46;85.40
34177;BME280;20450;49.074;9.158;2023-03-04T02:46:26;100374.06;;;0.51;84.83
34177;BME280;20450;49.074;9.158;2023-03-04T02:48:53;100374.81;;;0.63;83.97
34177;BME280;20450;49.074;9.158;2023-03-04T02:51:20;100366.22;;;0.80;83.58
34177;BME280;20450;49.074;9.158;2023-03-04T02:53:47;100374.09;;;0.91;82.93
34177;BME280;20450;49.074;9.158;2023-03-04T02:56:14;100368.66;;;1.02;81.69
34177;BME280;20450;49.074;9.158;2023-03-04T02:58:42;100373.16;;;1.11;80.83
34177;BME280;20450;49.074;9.158;2023-03-04T03:01:10;100366.28;;;1.18;80.22
34177;BME280;20450;49.074;9.158;2023-03-04T03:03:36;100366.28;;;1.18;79.44
34177;BME280;20450;49.074;9.158;2023-03-04T03:06:04;100370.66;;;1.19;79.69
34177;BME280;20450;49.074;9.158;2023-03-04T03:08:31;100366.16;;;1.10;79.99
34177;BME280;20450;49.074;9.158;2023-03-04T03:10:59;100378.84;;;0.97;80.36
34177;BME280;20450;49.074;9.158;2023-03-04T03:13:28;100375.31;;;0.87;80.95
34177;BME280;20450;49.074;9.158;2023-03-04T03:15:57;100372.13;;;0.93;80.91
34177;BME280;20450;49.074;9.158;2023-03-04T03:18:24;100365.72;;;0.56;82.23
34177;BME280;20450;49.074;9.158;2023-03-04T03:20:50;100366.50;;;0.47;82.87
34177;BME280;20450;49.074;9.158;2023-03-04T03:23:17;100369.63;;;0.52;82.21
34177;BME280;20450;49.074;9.158;2023-03-04T03:25:44;100369.28;;;0.36;83.00
34177;BME280;20450;49.074;9.158;2023-03-04T03:28:11;100382.84;;;0.42;83.29
34177;BME280;20450;49.074;9.158;2023-03-04T03:30:38;100381.47;;;0.48;82.66
34177;BME280;20450;49.074;9.158;2023-03-04T03:33:06;100378.25;;;0.44;82.40
34177;BME280;20450;49.074;9.158;2023-03-04T03:35:34;100373.94;;;0.43;82.02
34177;BME280;20450;49.074;9.158;2023-03-04T03:38:01;100376.59;;;0.53;82.17
34177;BME280;20450;49.074;9.158;2023-03-04T03:40:28;100368.16;;;0.68;82.04
34177;BME280;20450;49.074;9.158;2023-03-04T03:42:55;100375.53;;;0.65;81.05
34177;BME280;20450;49.074;9.158;2023-03-04T03:45:22;100372.59;;;0.68;80.37
34177;BME280;20450;49.074;9.158;2023-03-04T03:47:49;100370.00;;;0.77;79.63
34177;BME280;20450;49.074;9.158;2023-03-04T03:50:17;100366.75;;;0.74;78.44
34177;BME280;20450;49.074;9.158;2023-03-04T03:52:44;100367.88;;;0.71;78.50
34177;BME280;20450;49.074;9.158;2023-03-04T03:55:11;100371.53;;;0.80;77.71
34177;BME280;20450;49.074;9.158;2023-03-04T03:57:38;100367.75;;;0.82;77.17
34177;BME280;20450;49.074;9.158;2023-03-04T04:00:07;100377.03;;;0.88;77.52
34177;BME280;20450;49.074;9.158;2023-03-04T04:02:38;100372.41;;;0.90;77.35
34177;BME280;20450;49.074;9.158;2023-03-04T04:05:07;100381.94;;;0.92;77.30
34177;BME280;20450;49.074;9.158;2023-03-04T04:07:38;100378.97;;;0.95;77.13
34177;BME280;20450;49.074;9.158;2023-03-04T04:10:09;100387.09;;;0.94;77.26
34177;BME280;20450;49.074;9.158;2023-03-04T04:12:37;100383.47;;;0.95;77.38
34177;BME280;20450;49.074;9.158;2023-03-04T04:15:05;100387.81;;;0.96;77.40
34177;BME280;20450;49.074;9.158;2023-03-04T04:17:32;100390.19;;;0.99;77.12
34177;BME280;20450;49.074;9.158;2023-03-04T04:19:59;100392.84;;;0.99;76.77
34177;BME280;20450;49.074;9.158;2023-03-04T04:22:26;100390.47;;;0.96;76.78
34177;BME280;20450;49.074;9.158;2023-03-04T04:24:54;100391.59;;;0.93;76.78
34177;BME280;20450;49.074;9.158;2023-03-04T04:27:21;100386.09;;;0.85;76.84
34177;BME280;20450;49.074;9.158;2023-03-04T04:29:48;100388.47;;;0.79;77.17
34177;BME280;20450;49.074;9.158;2023-03-04T04:32:15;100381.16;;;0.71;77.26
34177;BME280;20450;49.074;9.158;2023-03-04T04:34:42;100387.16;;;0.73;77.56
34177;BME280;20450;49.074;9.158;2023-03-04T04:37:09;100384.38;;;0.75;77.42
34177;BME280;20450;49.074;9.158;2023-03-04T04:39:36;100392.09;;;0.78;77.39
34177;BME280;20450;49.074;9.158;2023-03-04T04:42:04;100392.22;;;0.76;77.23
34177;BME280;20450;49.074;9.158;2023-03-04T04:44:31;100393.22;;;0.75;77.18
34177;BME280;20450;49.074;9.158;2023-03-04T04:46:58;100389.69;;;0.75;77.25
34177;BME280;20450;49.074;9.158;2023-03-04T04:49:25;100394.31;;;0.73;77.92
34177;BME280;20450;49.074;9.158;2023-03-04T04:51:52;100396.97;;;0.73;79.42
34177;BME280;20450;49.074;9.158;2023-03-04T04:54:19;100399.78;;;0.71;79.89
34177;BME280;20450;49.074;9.158;2023-03-04T04:56:46;100393.88;;;0.68;79.59
34177;BME280;20450;49.074;9.158;2023-03-04T04:59:14;100400.31;;;0.65;79.39
34177;BME280;20450;49.074;9.158;2023-03-04T05:01:41;100399.31;;;0.66;79.41
34177;BME280;20450;49.074;9.158;2023-03-04T05:04:08;100408.72;;;0.70;79.40
34177;BME280;20450;49.074;9.158;2023-03-04T05:06:35;100410.09;;;0.65;78.93
34177;BME280;20450;49.074;9.158;2023-03-04T05:09:02;100410.88;;;0.56;78.90
34177;BME280;20450;49.074;9.158;2023-03-04T05:11:29;100411.88;;;0.55;79.34
34177;BME280;20450;49.074;9.158;2023-03-04T05:13:56;100409.34;;;0.53;79.11
34177;BME280;20450;49.074;9.158;2023-03-04T05:16:24;100421.66;;;0.54;79.38
34177;BME280;20450;49.074;9.158;2023-03-04T05:18:51;100414.78;;;0.52;78.99
34177;BME280;20450;49.074;9.158;2023-03-04T05:21:18;100414.78;;;0.52;79.77
34177;BME280;20450;49.074;9.158;2023-03-04T05:23:45;100414.34;;;0.47;79.64
34177;BME280;20450;49.074;9.158;2023-03-04T05:26:14;100411.94;;;0.44;79.67
34177;BME280;20450;49.074;9.158;2023-03-04T05:28:43;100419.75;;;0.36;80.06
34177;BME280;20450;49.074;9.158;2023-03-04T05:31:11;100415.66;;;0.32;80.86
34177;BME280;20450;49.074;9.158;2023-03-04T05:33:39;100407.00;;;0.30;80.43
34177;BME280;20450;49.074;9.158;2023-03-04T05:36:06;100412.75;;;0.35;79.97
34177;BME280;20450;49.074;9.158;2023-03-04T05:38:33;100414.88;;;0.41;79.78
34177;BME280;20450;49.074;9.158;2023-03-04T05:41:02;100413.06;;;0.41;78.12
34177;BME280;20450;49.074;9.158;2023-03-04T05:43:32;100414.88;;;0.41;77.26
34177;BME280;20450;49.074;9.158;2023-03-04T05:46:00;100414.13;;;0.29;76.52
34177;BME280;20450;49.074;9.158;2023-03-04T05:48:27;100415.63;;;0.22;77.80
34177;BME280;20450;49.074;9.158;2023-03-04T05:50:58;100413.53;;;0.26;77.77
34177;BME280;20450;49.074;9.158;2023-03-04T05:53:26;100419.69;;;0.26;77.76
34177;BME280;20450;49.074;9.158;2023-03-04T05:55:55;100417.03;;;0.26;78.17
34177;BME280;20450;49.074;9.158;2023-03-04T05:58:22;100419.56;;;0.28;77.60
34177;BME280;20450;49.074;9.158;2023-03-04T06:00:49;100425.00;;;0.26;77.32
34177;BME280;20450;49.074;9.158;2023-03-04T06:03:18;100424.88;;;0.07;78.48
34177;BME280;20450;49.074;9.158;2023-03-04T06:05:47;100431.22;;;-0.05;80.53
34177;BME280;20450;49.074;9.158;2023-03-04T06:08:16;100443.13;;;-0.20;81.77
34177;BME280;20450;49.074;9.158;2023-03-04T06:10:43;100448.78;;;-0.14;81.17
34177;BME280;20450;49.074;9.158;2023-03-04T06:13:10;100445.22;;;-0.03;80.88
34177;BME280;20450;49.074;9.158;2023-03-04T06:15:38;100455.31;;;0.03;80.23
34177;BME280;20450;49.074;9.158;2023-03-04T06:18:06;100447.81;;;0.08;79.83
34177;BME280;20450;49.074;9.158;2023-03-04T06:20:34;100450.66;;;0.16;80.51
34177;BME280;20450;49.074;9.158;2023-03-04T06:23:01;100461.34;;;0.26;79.41
34177;BME280;20450;49.074;9.158;2023-03-04T06:25:29;100451.91;;;0.33;79.17
34177;BME280;20450;49.074;9.158;2023-03-04T06:27:56;100452.19;;;0.39;78.53
34177;BME280;20450;49.074;9.158;2023-03-04T06:30:23;100465.09;;;0.44;77.25
34177;BME280;20450;49.074;9.158;2023-03-04T06:32:50;100461.19;;;0.48;77.69
34177;BME280;20450;49.074;9.158;2023-03-04T06:35:17;100462.63;;;0.52;76.98
34177;BME280;20450;49.074;9.158;2023-03-04T06:37:44;100465.56;;;0.49;77.21
34177;BME280;20450;49.074;9.158;2023-03-04T06:40:12;100459.13;;;0.51;76.58
34177;BME280;20450;49.074;9.158;2023-03-04T06:42:42;100453.53;;;0.54;76.25
34177;BME280;20450;49.074;9.158;2023-03-04T06:45:10;100465.03;;;0.55;76.36
34177;BME280;20450;49.074;9.158;2023-03-04T06:47:37;100475.31;;;-0.14;79.44
34177;BME280;20450;49.074;9.158;2023-03-04T06:50:05;100467.41;;;-0.36;81.08
34177;BME280;20450;49.074;9.158;2023-03-04T06:52:32;100471.69;;;-0.13;81.16
34177;BME280;20450;49.074;9.158;2023-03-04T06:54:59;100479.34;;;0.01;80.79
34177;BME280;20450;49.074;9.158;2023-03-04T06:57:26;100476.63;;;0.13;79.87
34177;BME280;20450;49.074;9.158;2023-03-04T06:59:54;100482.94;;;0.32;79.92
34177;BME280;20450;49.074;9.158;2023-03-04T07:02:21;100478.47;;;0.33;78.94
34177;BME280;20450;49.074;9.158;2023-03-04T07:04:48;100480.44;;;0.20;79.36
34177;BME280;20450;49.074;9.158;2023-03-04T07:07:16;100494.66;;;0.30;79.25
34177;BME280;20450;49.074;9.158;2023-03-04T07:09:42;100494.94;;;0.27;79.31
34177;BME280;20450;49.074;9.158;2023-03-04T07:12:09;100482.91;;;-0.09;80.84
34177;BME280;20450;49.074;9.158;2023-03-04T07:14:36;100487.66;;;-0.24;81.88
34177;BME280;20450;49.074;9.158;2023-03-04T07:17:04;100500.72;;;-0.32;83.23
34177;BME280;20450;49.074;9.158;2023-03-04T07:19:31;100499.41;;;-0.06;83.03
34177;BME280;20450;49.074;9.158;2023-03-04T07:21:58;100497.88;;;0.13;81.92
34177;BME280;20450;49.074;9.158;2023-03-04T07:24:25;100501.91;;;0.28;80.87
34177;BME280;20450;49.074;9.158;2023-03-04T07:26:52;100496.47;;;0.50;80.43
34177;BME280;20450;49.074;9.158;2023-03-04T07:29:19;100501.88;;;0.69;79.90
34177;BME280;20450;49.074;9.158;2023-03-04T07:31:46;100499.31;;;0.58;79.73
34177;BME280;20450;49.074;9.158;2023-03-04T07:34:14;100502.69;;;0.60;79.92
34177;BME280;20450;49.074;9.158;2023-03-04T07:36:41;100499.47;;;0.56;80.13
34177;BME280;20450;49.074;9.158;2023-03-04T07:39:10;100501.53;;;0.32;81.68
34177;BME280;20450;49.074;9.158;2023-03-04T07:41:38;100498.41;;;0.48;81.95
34177;BME280;20450;49.074;9.158;2023-03-04T07:44:07;100499.75;;;0.63;81.12
34177;BME280;20450;49.074;9.158;2023-03-04T07:46:36;100502.94;;;0.77;81.27
34177;BME280;20450;49.074;9.158;2023-03-04T07:49:03;100507.06;;;0.91;80.61
34177;BME280;20450;49.074;9.158;2023-03-04T07:51:32;100499.59;;;1.15;79.99
34177;BME280;20450;49.074;9.158;2023-03-04T07:54:00;100506.22;;;1.20;79.59
34177;BME280;20450;49.074;9.158;2023-03-04T07:56:29;100514.25;;;1.39;78.76
34177;BME280;20450;49.074;9.158;2023-03-04T07:58:57;100523.53;;;1.54;78.04
34177;BME280;20450;49.074;9.158;2023-03-04T08:01:26;100521.03;;;1.53;78.03
34177;BME280;20450;49.074;9.158;2023-03-04T08:03:56;100520.47;;;1.59;77.89
34177;BME280;20450;49.074;9.158;2023-03-04T08:06:23;100521.78;;;1.74;77.50
34177;BME280;20450;49.074;9.158;2023-03-04T08:08:57;100514.19;;;1.79;76.80
34177;BME280;20450;49.074;9.158;2023-03-04T08:11:26;100524.16;;;1.77;76.82
34177;BME280;20450;49.074;9.158;2023-03-04T08:13:55;100526.06;;;1.56;77.93
34177;BME280;20450;49.074;9.158;2023-03-04T08:16:24;100517.81;;;1.68;77.86
34177;BME280;20450;49.074;9.158;2023-03-04T08:18:54;100525.56;;;1.81;77.82
34177;BME280;20450;49.074;9.158;2023-03-04T08:21:23;100525.13;;;1.95;77.44
34177;BME280;20450;49.074;9.158;2023-03-04T08:23:52;100526.97;;;2.04;77.12
34177;BME280;20450;49.074;9.158;2023-03-04T08:26:23;100526.13;;;2.13;76.79
34177;BME280;20450;49.074;9.158;2023-03-04T08:28:53;100527.97;;;2.22;76.52
34177;BME280;20450;49.074;9.158;2023-03-04T08:31:21;100527.53;;;2.27;76.10
34177;BME280;20450;49.074;9.158;2023-03-04T08:33:48;100525.31;;;2.32;76.46
34177;BME280;20450;49.074;9.158;2023-03-04T08:36:15;100526.84;;;2.15;76.75
34177;BME280;20450;49.074;9.158;2023-03-04T08:38:42;100526.97;;;1.94;78.14
34177;BME280;20450;49.074;9.158;2023-03-04T08:41:09;100531.91;;;1.99;77.95
34177;BME280;20450;49.074;9.158;2023-03-04T08:43:38;100527.81;;;1.85;78.65
34177;BME280;20450;49.074;9.158;2023-03-04T08:46:05;100525.31;;;1.44;80.92
34177;BME280;20450;49.074;9.158;2023-03-04T08:48:32;100522.66;;;1.44;81.49
34177;BME280;20450;49.074;9.158;2023-03-04T08:50:59;100531.16;;;1.78;81.07
34177;BME280;20450;49.074;9.158;2023-03-04T08:53:26;100523.63;;;1.83;80.25
34177;BME280;20450;49.074;9.158;2023-03-04T08:55:53;100527.25;;;2.01;80.44
34177;BME280;20450;49.074;9.158;2023-03-04T08:58:20;100525.13;;;1.95;80.19
34177;BME280;20450;49.074;9.158;2023-03-04T09:00:49;100525.84;;;1.97;79.79
34177;BME280;20450;49.074;9.158;2023-03-04T09:03:17;100524.59;;;2.11;79.37
34177;BME280;20450;49.074;9.158;2023-03-04T09:05:45;100523.63;;;2.21;78.45
34177;BME280;20450;49.074;9.158;2023-03-04T09:08:12;100525.84;;;2.35;78.49
34177;BME280;20450;49.074;9.158;2023-03-04T09:10:39;100519.94;;;2.41;77.86
34177;BME280;20450;49.074;9.158;2023-03-04T09:13:07;100526.00;;;2.34;77.55
34177;BME280;20450;49.074;9.158;2023-03-04T09:15:34;100522.63;;;1.93;78.93
34177;BME280;20450;49.074;9.158;2023-03-04T09:18:03;100522.06;;;1.99;79.24
34177;BME280;20450;49.074;9.158;2023-03-04T09:20:32;100520.13;;;2.11;78.79
34177;BME280;20450;49.074;9.158;2023-03-04T09:22:59;100515.47;;;2.13;78.68
34177;BME280;20450;49.074;9.158;2023-03-04T09:25:27;100513.38;;;2.45;77.13
34177;BME280;20450;49.074;9.158;2023-03-04T09:27:54;100507.84;;;2.75;76.45
34177;BME280;20450;49.074;9.158;2023-03-04T09:30:21;100520.63;;;2.62;75.79
34177;BME280;20450;49.074;9.158;2023-03-04T09:32:48;100517.13;;;2.52;77.75
34177;BME280;20450;49.074;9.158;2023-03-04T09:35:17;100515.84;;;2.66;76.73
34177;BME280;20450;49.074;9.158;2023-03-04T09:37:44;100513.47;;;2.53;77.62
34177;BME280;20450;49.074;9.158;2023-03-04T09:40:16;100515.03;;;2.56;77.42
34177;BME280;20450;49.074;9.158;2023-03-04T09:42:50;100512.34;;;2.65;77.96
34177;BME280;20450;49.074;9.158;2023-03-04T09:45:26;100519.53;;;2.65;76.21
34177;BME280;20450;49.074;9.158;2023-03-04T09:47:57;100522.03;;;2.47;77.16
34177;BME280;20450;49.074;9.158;2023-03-04T09:50:28;100527.81;;;2.52;76.63
34177;BME280;20450;49.074;9.158;2023-03-04T09:53:06;100533.44;;;2.30;78.09
34177;BME280;20450;49.074;9.158;2023-03-04T09:55:48;100531.47;;;2.51;78.44
34177;BME280;20450;49.074;9.158;2023-03-04T09:58:27;100516.00;;;2.74;77.17
34177;BME280;20450;49.074;9.158;2023-03-04T10:01:11;100522.44;;;2.71;75.44
34177;BME280;20450;49.074;9.158;2023-03-04T10:03:50;100526.03;;;2.99;75.46
34177;BME280;20450;49.074;9.158;2023-03-04T10:06:21;100521.25;;;3.29;74.69
34177;BME280;20450;49.074;9.158;2023-03-04T10:08:53;100527.22;;;3.50;73.76
34177;BME280;20450;49.074;9.158;2023-03-04T10:11:27;100525.28;;;3.70;72.28
34177;BME280;20450;49.074;9.158;2023-03-04T10:14:09;100522.22;;;3.82;70.72
34177;BME280;20450;49.074;9.158;2023-03-04T10:16:52;100526.47;;;3.31;72.69
34177;BME280;20450;49.074;9.158;2023-03-04T10:19:27;100522.94;;;3.30;72.10
34177;BME280;20450;49.074;9.158;2023-03-04T10:22:14;100524.81;;;3.20;73.68
34177;BME280;20450;49.074;9.158;2023-03-04T10:24:45;100517.38;;;3.24;72.05
34177;BME280;20450;49.074;9.158;2023-03-04T10:27:16;100518.84;;;2.99;73.99
34177;BME280;20450;49.074;9.158;2023-03-04T10:29:45;100514.78;;;3.32;73.00
34177;BME280;20450;49.074;9.158;2023-03-04T10:32:16;100511.78;;;3.44;72.54
34177;BME280;20450;49.074;9.158;2023-03-04T10:34:46;100518.75;;;3.55;71.88
34177;BME280;20450;49.074;9.158;2023-03-04T10:37:15;100505.06;;;3.67;71.41
34177;BME280;20450;49.074;9.158;2023-03-04T10:39:44;100503.44;;;3.74;70.77
34177;BME280;20450;49.074;9.158;2023-03-04T10:42:26;100509.56;;;3.84;71.34
34177;BME280;20450;49.074;9.158;2023-03-04T10:44:57;100498.03;;;3.84;70.21
34177;BME280;20450;49.074;9.158;2023-03-04T10:47:28;100508.19;;;3.80;70.67
34177;BME280;20450;49.074;9.158;2023-03-04T10:49:58;100504.53;;;3.81;70.93
34177;BME280;20450;49.074;9.158;2023-03-04T10:52:30;100501.56;;;3.84;71.52
34177;BME280;20450;49.074;9.158;2023-03-04T10:55:00;100495.31;;;3.93;70.95
34177;BME280;20450;49.074;9.158;2023-03-04T10:57:34;100502.97;;;3.61;71.68
34177;BME280;20450;49.074;9.158;2023-03-04T11:00:26;100499.09;;;3.73;71.75
34177;BME280;20450;49.074;9.158;2023-03-04T11:08:57;100496.31;;;4.10;70.09
34177;BME280;20450;49.074;9.158;2023-03-04T11:11:30;100495.22;;;4.21;69.72
34177;BME280;20450;49.074;9.158;2023-03-04T11:14:13;100487.72;;;4.24;69.48
34177;BME280;20450;49.074;9.158;2023-03-04T11:16:55;100484.38;;;4.22;67.96
34177;BME280;20450;49.074;9.158;2023-03-04T11:19:28;100487.06;;;4.22;67.36
34177;BME280;20450;49.074;9.158;2023-03-04T11:22:02;100480.81;;;4.14;66.51
34177;BME280;20450;49.074;9.158;2023-03-04T11:24:33;100483.69;;;4.20;65.90
34177;BME280;20450;49.074;9.158;2023-03-04T11:27:06;100478.25;;;4.30;65.63
34177;BME280;20450;49.074;9.158;2023-03-04T11:29:44;100477.84;;;4.42;65.02
34177;BME280;20450;49.074;9.158;2023-03-04T11:32:20;100473.50;;;4.41;64.85
34177;BME280;20450;49.074;9.158;2023-03-04T11:34:52;100476.19;;;4.41;65.05
34177;BME280;20450;49.074;9.158;2023-03-04T11:37:29;100479.22;;;4.46;64.70
34177;BME280;20450;49.074;9.158;2023-03-04T11:40:03;100475.00;;;4.44;64.75
34177;BME280;20450;49.074;9.158;2023-03-04T11:42:39;100472.03;;;4.47;63.92
34177;BME280;20450;49.074;9.158;2023-03-04T11:45:12;100473.25;;;4.52;64.08
34177;BME280;20450;49.074;9.158;2023-03-04T11:48:01;100466.97;;;4.61;64.67
34177;BME280;20450;49.074;9.158;2023-03-04T11:50:43;100466.66;;;4.64;64.14
34177;BME280;20450;49.074;9.158;2023-03-04T11:53:24;100462.59;;;4.60;63.11
34177;BME280;20450;49.074;9.158;2023-03-04T11:56:15;100463.81;;;4.66;63.77
34177;BME280;20450;49.074;9.158;2023-03-04T11:59:03;100458.19;;;4.51;63.51
34177;BME280;20450;49.074;9.158;2023-03-04T12:01:51;100459.09;;;4.60;63.69
34177;BME280;20450;49.074;9.158;2023-03-04T12:04:37;100450.44;;;4.66;62.75
34177;BME280;20450;49.074;9.158;2023-03-04T12:07:52;100451.34;;;4.74;62.36
34177;BME280;20450;49.074;9.158;2023-03-04T12:10:32;100447.13;;;4.72;63.05
34177;BME280;20450;49.074;9.158;2023-03-04T12:13:23;100441.13;;;4.78;62.82
34177;BME280;20450;49.074;9.158;2023-03-04T12:16:27;100434.59;;;4.72;62.66
34177;BME280;20450;49.074;9.158;2023-03-04T12:19:16;100430.09;;;4.81;62.49
34177;BME280;20450;49.074;9.158;2023-03-04T12:22:16;100431.50;;;4.85;62.35
34177;BME280;20450;49.074;9.158;2023-03-04T12:25:05;100429.00;;;4.91;62.17
34177;BME280;20450;49.074;9.158;2023-03-04T12:28:23;100424.50;;;4.92;61.41
34177;BME280;20450;49.074;9.158;2023-03-04T12:31:09;100424.00;;;4.96;61.69
34177;BME280;20450;49.074;9.158;2023-03-04T12:34:03;100411.59;;;4.87;62.00
34177;BME280;20450;49.074;9.158;2023-03-04T12:36:56;100417.09;;;4.86;62.19
34177;BME280;20450;49.074;9.158;2023-03-04T12:39:31;100409.88;;;4.78;62.05
34177;BME280;20450;49.074;9.158;2023-03-04T12:42:09;100410.66;;;4.71;62.90
34177;BME280;20450;49.074;9.158;2023-03-04T12:44:54;100409.06;;;4.86;62.74
34177;BME280;20450;49.074;9.158;2023-03-04T12:47:37;100408.59;;;4.90;61.82
34177;BME280;20450;49.074;9.158;2023-03-04T12:50:30;100400.28;;;5.01;61.31
34177;BME280;20450;49.074;9.158;2023-03-04T12:53:15;100399.31;;;5.10;61.25
34177;BME280;20450;49.074;9.158;2023-03-04T12:55:48;100392.94;;;5.11;60.40
34177;BME280;20450;49.074;9.158;2023-03-04T12:58:17;100390.06;;;5.05;60.32
34177;BME280;20450;49.074;9.158;2023-03-04T13:00:55;100398.44;;;5.02;60.17
34177;BME280;20450;49.074;9.158;2023-03-04T13:03:36;100384.06;;;5.03;60.79
34177;BME280;20450;49.074;9.158;2023-03-04T13:06:15;100382.09;;;5.13;60.29
34177;BME280;20450;49.074;9.158;2023-03-04T13:08:58;100393.13;;;5.10;60.15
34177;BME280;20450;49.074;9.158;2023-03-04T13:11:52;100387.44;;;5.13;60.21
34177;BME280;20450;49.074;9.158;2023-03-04T13:14:29;100393.13;;;5.18;60.36
34177;BME280;20450;49.074;9.158;2023-03-04T13:17:01;100387.44;;;5.21;60.11
34177;BME280;20450;49.074;9.158;2023-03-04T13:19:57;100382.97;;;5.29;60.26
34177;BME280;20450;49.074;9.158;2023-03-04T13:22:51;100384.81;;;5.29;59.84
34177;BME280;20450;49.074;9.158;2023-03-04T13:25:33;100388.34;;;5.29;60.25